createdAt,value
2023-04-26T00:01:32.415Z,7.50
2023-04-26T00:03:59.709Z,8.98
2023-04-26T00:06:27.631Z,7.13
2023-04-26T00:08:55.117Z,7.40
2023-04-26T00:11:22.044Z,7.68
2023-04-26T00:13:49.003Z,7.68
2023-04-26T00:16:17.295Z,6.80
2023-04-26T00:18:45.307Z,9.10
2023-04-26T00:21:12.658Z,6.63
2023-04-26T00:23:39.844Z,7.13
2023-04-26T00:26:06.559Z,7.07
2023-04-26T00:28:33.641Z,6.57
2023-04-26T00:31:00.780Z,6.13
2023-04-26T00:33:27.846Z,5.30
2023-04-26T00:35:54.907Z,5.70
2023-04-26T00:38:22.003Z,7.60
2023-04-26T00:40:49.144Z,6.65
2023-04-26T00:43:16.580Z,7.65
2023-04-26T00:45:43.711Z,6.25
2023-04-26T00:48:10.898Z,8.05
2023-04-26T00:50:38.325Z,5.80
2023-04-26T00:53:05.569Z,6.05
2023-04-26T00:55:32.649Z,5.38
2023-04-26T00:57:59.829Z,7.05
2023-04-26T01:00:28.293Z,6.65
2023-04-26T01:02:55.398Z,6.28
2023-04-26T01:05:22.789Z,7.95
2023-04-26T01:07:50.004Z,6.82
2023-04-26T01:10:17.836Z,6.30
2023-04-26T01:12:45.013Z,6.32
2023-04-26T01:15:12.460Z,7.30
2023-04-26T01:17:40.074Z,6.40
2023-04-26T01:20:09.155Z,6.03
2023-04-26T01:22:36.780Z,6.47
2023-04-26T01:25:04.847Z,7.40
2023-04-26T01:27:31.478Z,7.05
2023-04-26T01:29:58.576Z,6.03
2023-04-26T01:32:25.300Z,6.07
2023-04-26T01:34:52.027Z,6.68
2023-04-26T01:37:18.623Z,5.38
2023-04-26T01:39:45.604Z,5.80
2023-04-26T01:42:12.554Z,5.38
2023-04-26T01:44:40.007Z,6.07
2023-04-26T01:47:07.474Z,6.03
2023-04-26T01:49:34.293Z,4.97
2023-04-26T01:52:01.570Z,5.40
2023-04-26T01:54:28.247Z,7.13
2023-04-26T01:56:57.010Z,5.72
2023-04-26T01:59:24.210Z,5.68
2023-04-26T02:01:51.087Z,5.28
2023-04-26T02:04:17.932Z,5.45
2023-04-26T02:06:45.004Z,5.03
2023-04-26T02:09:11.864Z,5.13
2023-04-26T02:11:38.551Z,5.88
2023-04-26T02:14:06.036Z,5.47
2023-04-26T02:16:33.013Z,4.93
2023-04-26T02:19:00.378Z,4.80
2023-04-26T02:21:28.665Z,5.30
2023-04-26T02:23:55.355Z,5.57
2023-04-26T02:26:23.483Z,4.85
2023-04-26T02:28:50.207Z,4.32
2023-04-26T02:31:16.930Z,5.43
2023-04-26T02:33:43.631Z,4.93
2023-04-26T02:36:10.883Z,5.07
2023-04-26T02:38:37.621Z,4.80
2023-04-26T02:41:04.984Z,4.57
2023-04-26T02:43:31.653Z,5.18
2023-04-26T02:46:01.760Z,5.10
2023-04-26T02:48:28.394Z,4.60
2023-04-26T02:50:55.315Z,5.10
2023-04-26T02:53:22.002Z,4.90
2023-04-26T02:55:49.126Z,5.85
2023-04-26T02:58:16.016Z,5.45
2023-04-26T03:00:47.851Z,4.28
2023-04-26T03:03:14.971Z,6.13
2023-04-26T03:05:42.021Z,4.70
2023-04-26T03:08:09.599Z,4.60
2023-04-26T03:10:36.696Z,5.05
2023-04-26T03:13:04.670Z,5.22
2023-04-26T03:15:31.883Z,5.78
2023-04-26T03:17:58.955Z,5.55
2023-04-26T03:20:25.917Z,5.30
2023-04-26T03:22:53.084Z,6.22
2023-04-26T03:25:20.319Z,5.68
2023-04-26T03:27:47.625Z,8.00
2023-04-26T03:30:15.172Z,6.18
2023-04-26T03:32:42.006Z,5.15
2023-04-26T03:35:10.549Z,5.18
2023-04-26T03:37:40.111Z,5.38
2023-04-26T03:40:08.813Z,5.47
2023-04-26T03:42:36.629Z,6.00
2023-04-26T03:45:04.348Z,9.27
2023-04-26T03:47:31.587Z,5.90
2023-04-26T03:49:59.275Z,7.15
2023-04-26T03:52:26.024Z,6.70
2023-04-26T03:54:53.327Z,6.18
2023-04-26T03:57:20.265Z,6.07
2023-04-26T03:59:46.886Z,7.75
2023-04-26T04:02:13.687Z,6.75
2023-04-26T04:04:41.030Z,6.45
2023-04-26T04:07:08.074Z,6.30
2023-04-26T04:09:34.983Z,7.45
2023-04-26T04:12:01.839Z,7.75
2023-04-26T04:14:28.799Z,6.47
2023-04-26T04:16:55.637Z,8.00
2023-04-26T04:19:22.344Z,7.18
2023-04-26T04:21:49.052Z,7.32
2023-04-26T04:24:15.905Z,6.72
2023-04-26T04:26:42.762Z,6.28
2023-04-26T04:29:09.510Z,7.25
2023-04-26T04:31:37.204Z,6.93
2023-04-26T04:34:04.279Z,5.65
2023-04-26T04:36:31.459Z,5.38
2023-04-26T04:38:58.421Z,6.07
2023-04-26T04:41:25.227Z,6.03
2023-04-26T04:43:52.170Z,6.60
2023-04-26T04:46:18.844Z,5.30
2023-04-26T04:48:45.563Z,6.15
2023-04-26T04:51:12.400Z,5.47
2023-04-26T04:53:39.015Z,5.05
2023-04-26T04:58:38.351Z,4.93
2023-04-26T05:01:05.597Z,5.35
2023-04-26T05:03:34.336Z,5.53
2023-04-26T05:06:01.883Z,5.20
2023-04-26T05:08:28.558Z,5.72
2023-04-26T05:10:55.882Z,6.13
2023-04-26T05:13:22.810Z,4.63
2023-04-26T05:15:49.807Z,5.88
2023-04-26T05:18:16.829Z,4.22
2023-04-26T05:20:43.784Z,5.45
2023-04-26T05:23:10.493Z,4.47
2023-04-26T05:25:38.125Z,4.63
2023-04-26T05:28:05.158Z,4.95
2023-04-26T05:30:31.831Z,5.10
2023-04-26T05:32:59.107Z,5.20
2023-04-26T05:35:26.164Z,4.88
2023-04-26T05:37:53.001Z,5.22
2023-04-26T05:40:20.146Z,4.47
2023-04-26T05:42:47.521Z,4.22
2023-04-26T05:45:14.726Z,4.05
2023-04-26T05:47:41.975Z,4.53
2023-04-26T05:50:08.856Z,4.50
2023-04-26T05:52:35.496Z,4.68
2023-04-26T05:55:06.502Z,3.85
2023-04-26T05:57:35.093Z,4.72
2023-04-26T06:00:03.565Z,4.00
2023-04-26T06:02:30.881Z,4.22
2023-04-26T06:04:58.410Z,6.35
2023-04-26T06:07:25.845Z,5.38
2023-04-26T06:09:53.217Z,4.60
2023-04-26T06:12:19.882Z,4.25
2023-04-26T06:14:46.586Z,4.28
2023-04-26T06:17:13.743Z,3.58
2023-04-26T06:19:40.919Z,3.75
2023-04-26T06:22:08.195Z,4.00
2023-04-26T06:24:35.430Z,3.42
2023-04-26T06:27:02.076Z,3.40
2023-04-26T06:29:32.884Z,3.30
2023-04-26T06:32:00.127Z,4.38
2023-04-26T06:34:27.382Z,3.30
2023-04-26T06:36:53.980Z,3.55
2023-04-26T06:39:20.711Z,3.08
2023-04-26T06:41:47.741Z,2.80
2023-04-26T06:44:14.621Z,3.10
2023-04-26T06:46:41.360Z,2.90
2023-04-26T06:49:08.124Z,2.88
2023-04-26T06:51:35.447Z,2.40
2023-04-26T06:54:02.727Z,3.03
2023-04-26T06:56:30.154Z,2.22
2023-04-26T06:59:01.515Z,2.72
2023-04-26T07:01:29.567Z,3.05
2023-04-26T07:03:58.124Z,2.22
2023-04-26T07:06:26.895Z,2.45
2023-04-26T07:08:53.835Z,2.65
2023-04-26T07:11:23.335Z,2.55
2023-04-26T07:13:52.158Z,3.15
2023-04-26T07:16:19.540Z,2.90
2023-04-26T07:18:48.708Z,2.50
2023-04-26T07:21:15.758Z,2.67
2023-04-26T07:23:43.100Z,2.70
2023-04-26T07:26:13.246Z,3.17
2023-04-26T07:28:40.377Z,2.33
2023-04-26T07:31:09.609Z,2.75
2023-04-26T07:33:37.577Z,2.43
2023-04-26T07:36:04.877Z,2.40
2023-04-26T07:38:31.971Z,2.55
2023-04-26T07:40:59.042Z,1.98
2023-04-26T07:43:26.526Z,2.20
2023-04-26T07:45:53.702Z,1.92
2023-04-26T07:48:20.859Z,2.53
2023-04-26T07:50:47.602Z,2.30
2023-04-26T07:53:14.536Z,1.70
2023-04-26T07:55:41.202Z,2.13
2023-04-26T07:58:08.314Z,2.40
2023-04-26T08:00:38.928Z,1.73
2023-04-26T08:03:06.245Z,2.00
2023-04-26T08:05:33.758Z,2.20
2023-04-26T08:08:04.087Z,2.63
2023-04-26T08:10:31.634Z,1.60
2023-04-26T08:12:58.685Z,1.90
2023-04-26T08:15:25.373Z,2.20
2023-04-26T08:17:53.759Z,1.77
2023-04-26T08:20:21.410Z,3.28
2023-04-26T08:22:48.481Z,3.20
2023-04-26T08:25:16.075Z,2.70
2023-04-26T08:27:44.937Z,2.20
2023-04-26T08:30:12.502Z,1.52
2023-04-26T08:32:39.266Z,1.85
2023-04-26T08:35:06.556Z,1.85
2023-04-26T08:37:33.976Z,2.67
2023-04-26T08:40:01.117Z,2.35
2023-04-26T08:42:29.220Z,1.58
2023-04-26T08:44:57.562Z,3.20
2023-04-26T08:47:50.704Z,3.00
2023-04-26T08:50:20.664Z,1.70
2023-04-26T08:52:48.285Z,3.58
2023-04-26T08:55:20.420Z,1.88
2023-04-26T08:57:48.210Z,3.40
2023-04-26T09:00:16.315Z,7.13
2023-04-26T09:02:46.554Z,2.20
2023-04-26T09:05:13.288Z,1.70
2023-04-26T09:07:45.934Z,1.83
2023-04-26T09:10:13.642Z,3.33
2023-04-26T09:12:40.946Z,2.00
2023-04-26T09:15:08.499Z,1.75
2023-04-26T09:17:39.784Z,1.60
2023-04-26T09:22:36.340Z,4.07
2023-04-26T09:25:04.370Z,1.60
2023-04-26T09:27:38.532Z,2.50
2023-04-26T09:30:10.672Z,1.63
2023-04-26T09:32:47.819Z,1.42
2023-04-26T09:35:38.268Z,1.45
2023-04-26T09:38:10.931Z,1.75
2023-04-26T09:40:46.718Z,1.85
2023-04-26T09:43:23.464Z,2.17
2023-04-26T09:45:54.242Z,1.80
2023-04-26T09:48:26.641Z,2.08
2023-04-26T09:50:55.470Z,1.80
2023-04-26T09:53:32.266Z,1.60
2023-04-26T09:56:07.882Z,1.42
2023-04-26T09:58:35.431Z,1.95
2023-04-26T10:01:03.386Z,1.75
2023-04-26T10:03:30.498Z,1.60
2023-04-26T10:05:58.276Z,1.30
2023-04-26T10:08:26.114Z,1.90
2023-04-26T10:10:52.991Z,2.40
2023-04-26T10:13:20.132Z,1.67
2023-04-26T10:15:48.000Z,1.70
2023-04-26T10:18:15.204Z,4.53
2023-04-26T10:20:44.923Z,2.88
2023-04-26T10:23:16.615Z,2.53
2023-04-26T10:25:44.205Z,1.13
2023-04-26T10:28:10.891Z,1.40
2023-04-26T10:30:58.225Z,1.35
2023-04-26T10:33:26.480Z,1.15
2023-04-26T10:36:05.474Z,2.00
2023-04-26T10:38:33.299Z,2.28
2023-04-26T10:41:19.075Z,2.58
2023-04-26T10:43:45.929Z,2.20
2023-04-26T10:46:32.813Z,1.48
2023-04-26T10:49:00.005Z,1.40
2023-04-26T10:51:30.204Z,1.65
2023-04-26T10:53:56.764Z,1.65
2023-04-26T10:56:25.394Z,1.65
2023-04-26T10:59:33.461Z,1.30
2023-04-26T11:02:00.512Z,1.95
2023-04-26T11:04:47.671Z,1.45
2023-04-26T11:07:14.723Z,1.50
2023-04-26T11:09:49.198Z,1.40
2023-04-26T11:12:19.271Z,1.55
2023-04-26T11:14:48.878Z,1.60
2023-04-26T11:17:16.008Z,1.38
2023-04-26T11:19:43.077Z,1.30
2023-04-26T11:22:10.458Z,1.42
2023-04-26T11:24:37.489Z,1.50
2023-04-26T11:27:11.139Z,1.60
2023-04-26T11:29:41.225Z,1.40
2023-04-26T11:32:08.481Z,1.48
2023-04-26T11:34:35.708Z,1.48
2023-04-26T11:37:03.030Z,2.08
2023-04-26T11:39:31.455Z,1.65
2023-04-26T11:42:08.288Z,1.45
2023-04-26T11:44:36.123Z,1.98
2023-04-26T11:47:06.296Z,2.17
2023-04-26T11:49:34.227Z,2.00
2023-04-26T11:52:02.066Z,2.10
2023-04-26T11:54:30.595Z,2.30
2023-04-26T11:56:58.521Z,1.90
2023-04-26T11:59:26.260Z,1.65
2023-04-26T12:01:56.239Z,2.20
2023-04-26T12:04:32.586Z,1.63
2023-04-26T12:06:59.849Z,2.30
2023-04-26T12:09:32.455Z,1.50
2023-04-26T12:12:17.512Z,1.73
2023-04-26T12:14:47.455Z,1.40
2023-04-26T12:17:15.222Z,1.40
2023-04-26T12:19:42.839Z,1.50
2023-04-26T12:22:09.595Z,1.40
2023-04-26T12:24:39.023Z,2.03
2023-04-26T12:27:13.221Z,2.42
2023-04-26T12:29:40.256Z,1.95
2023-04-26T12:32:07.264Z,1.55
2023-04-26T12:34:34.615Z,1.75
2023-04-26T12:37:01.616Z,1.70
2023-04-26T12:39:28.284Z,1.92
2023-04-26T12:41:55.432Z,1.85
2023-04-26T12:44:22.897Z,2.65
2023-04-26T12:46:50.343Z,1.98
2023-04-26T12:49:17.110Z,2.05
2023-04-26T12:51:43.810Z,2.40
2023-04-26T12:54:10.934Z,1.58
2023-04-26T12:56:44.170Z,1.88
2023-04-26T12:59:11.550Z,2.00
2023-04-26T13:01:38.870Z,2.58
2023-04-26T13:04:06.582Z,1.83
2023-04-26T13:06:33.878Z,1.65
2023-04-26T13:09:00.777Z,2.85
2023-04-26T13:11:27.729Z,2.40
2023-04-26T13:13:54.532Z,2.35
2023-04-26T13:16:21.126Z,2.13
2023-04-26T13:18:48.379Z,3.22
2023-04-26T13:21:15.807Z,2.10
2023-04-26T13:23:42.879Z,2.42
2023-04-26T13:26:10.093Z,2.88
2023-04-26T13:28:37.183Z,2.10
2023-04-26T13:31:04.359Z,1.83
2023-04-26T13:33:31.083Z,2.08
2023-04-26T13:35:58.188Z,2.40
2023-04-26T13:38:26.901Z,1.83
2023-04-26T13:40:54.420Z,2.30
2023-04-26T13:43:21.426Z,1.85
2023-04-26T13:45:48.236Z,1.80
2023-04-26T13:48:15.089Z,2.10
2023-04-26T13:50:42.438Z,1.95
2023-04-26T13:53:09.497Z,2.10
2023-04-26T13:55:36.557Z,1.95
2023-04-26T13:58:03.763Z,2.10
2023-04-26T14:00:30.972Z,2.00
2023-04-26T14:02:58.211Z,2.42
2023-04-26T14:05:26.021Z,2.22
2023-04-26T14:07:54.941Z,1.80
2023-04-26T14:10:22.661Z,1.80
2023-04-26T14:12:49.335Z,1.83
2023-04-26T14:15:16.492Z,2.72
2023-04-26T14:17:43.508Z,3.30
2023-04-26T14:20:10.801Z,1.75
2023-04-26T14:22:37.525Z,1.95
2023-04-26T14:25:05.041Z,3.35
2023-04-26T14:27:32.295Z,2.13
2023-04-26T14:29:58.971Z,2.22
2023-04-26T14:32:27.111Z,2.08
2023-04-26T14:34:54.366Z,2.10
2023-04-26T14:37:23.157Z,2.10
2023-04-26T14:39:51.193Z,1.83
2023-04-26T14:42:18.288Z,1.83
2023-04-26T14:44:46.974Z,2.22
2023-04-26T14:47:13.731Z,1.88
2023-04-26T14:49:40.768Z,2.45
2023-04-26T14:52:07.636Z,1.90
2023-04-26T14:54:37.771Z,2.53
2023-04-26T14:57:04.564Z,2.03
2023-04-26T14:59:31.959Z,2.35
2023-04-26T15:01:58.715Z,1.83
2023-04-26T15:04:28.438Z,2.17
2023-04-26T15:06:55.452Z,2.05
2023-04-26T15:09:22.589Z,2.10
2023-04-26T15:11:49.287Z,2.33
2023-04-26T15:14:16.762Z,2.10
2023-04-26T15:16:43.525Z,2.40
2023-04-26T15:19:10.652Z,2.90
2023-04-26T15:21:37.442Z,2.08
2023-04-26T15:24:04.714Z,2.28
2023-04-26T15:26:31.956Z,1.90
2023-04-26T15:28:58.763Z,2.55
2023-04-26T15:31:25.779Z,1.95
2023-04-26T15:33:55.622Z,2.10
2023-04-26T15:36:22.867Z,2.85
2023-04-26T15:38:50.514Z,1.88
2023-04-26T15:41:17.738Z,2.28
2023-04-26T15:43:44.859Z,2.47
2023-04-26T15:46:15.432Z,2.35
2023-04-26T15:48:42.193Z,2.17
2023-04-26T15:51:08.854Z,2.30
2023-04-26T15:53:36.431Z,1.95
2023-04-26T15:56:16.041Z,2.72
2023-04-26T15:58:43.754Z,1.83
2023-04-26T16:01:10.341Z,1.95
2023-04-26T16:03:37.272Z,2.22
2023-04-26T16:06:04.763Z,2.25
2023-04-26T16:08:39.907Z,2.47
2023-04-26T16:11:07.708Z,2.47
2023-04-26T16:13:34.806Z,3.53
2023-04-26T16:16:01.992Z,2.60
2023-04-26T16:18:28.675Z,2.28
2023-04-26T16:21:03.533Z,2.17
2023-04-26T16:23:30.705Z,2.65
2023-04-26T16:25:57.813Z,3.03
2023-04-26T16:28:24.790Z,2.42
2023-04-26T16:30:52.290Z,2.60
2023-04-26T16:33:22.539Z,3.20
2023-04-26T16:35:51.213Z,2.17
2023-04-26T16:38:19.102Z,3.35
2023-04-26T16:40:58.132Z,2.33
2023-04-26T16:43:29.089Z,2.67
2023-04-26T16:46:03.606Z,2.40
2023-04-26T16:48:34.938Z,2.50
2023-04-26T16:51:04.669Z,2.10
2023-04-26T16:56:00.924Z,2.33
2023-04-26T16:58:28.691Z,3.30
2023-04-26T17:00:56.191Z,4.00
2023-04-26T17:03:24.466Z,4.40
2023-04-26T17:05:51.774Z,4.10
2023-04-26T17:08:19.278Z,3.78
2023-04-26T17:10:46.865Z,2.60
2023-04-26T17:13:13.590Z,2.55
2023-04-26T17:15:41.512Z,2.85
2023-04-26T17:18:08.977Z,2.22
2023-04-26T17:20:36.178Z,3.03
2023-04-26T17:23:04.468Z,2.33
2023-04-26T17:25:31.201Z,2.30
2023-04-26T17:27:58.242Z,2.65
2023-04-26T17:30:25.656Z,2.38
2023-04-26T17:32:52.911Z,2.72
2023-04-26T17:35:20.209Z,3.25
2023-04-26T17:37:50.115Z,3.40
2023-04-26T17:40:18.810Z,3.30
2023-04-26T17:42:46.557Z,3.30
2023-04-26T17:45:14.808Z,4.30
2023-04-26T17:47:42.832Z,5.10
2023-04-26T17:50:10.296Z,3.80
2023-04-26T17:52:37.658Z,3.80
2023-04-26T17:55:06.474Z,4.25
2023-04-26T17:57:33.625Z,4.38
2023-04-26T18:00:00.671Z,4.60
2023-04-26T18:02:27.934Z,3.78
2023-04-26T18:04:55.626Z,4.78
2023-04-26T18:07:22.679Z,4.68
2023-04-26T18:09:49.734Z,4.38
2023-04-26T18:12:16.781Z,4.00
2023-04-26T18:14:46.648Z,3.78
2023-04-26T18:17:14.384Z,5.28
2023-04-26T18:19:42.341Z,3.65
2023-04-26T18:22:09.620Z,4.50
2023-04-26T18:24:36.734Z,3.38
2023-04-26T18:27:03.349Z,3.47
2023-04-26T18:29:30.791Z,4.38
2023-04-26T18:31:57.824Z,4.30
2023-04-26T18:34:24.646Z,3.95
2023-04-26T18:36:51.953Z,3.47
2023-04-26T18:39:19.178Z,3.60
2023-04-26T18:41:46.434Z,4.10
2023-04-26T18:44:16.436Z,3.65
2023-04-26T18:46:43.734Z,3.45
2023-04-26T18:49:11.549Z,3.78
2023-04-26T18:51:38.580Z,3.45
2023-04-26T18:54:05.872Z,6.18
2023-04-26T18:56:34.077Z,5.93
2023-04-26T18:59:01.169Z,4.22
2023-04-26T19:01:28.380Z,3.95
2023-04-26T19:03:55.928Z,3.50
2023-04-26T19:06:23.069Z,3.45
2023-04-26T19:08:49.819Z,3.92
2023-04-26T19:11:17.330Z,4.85
2023-04-26T19:13:44.583Z,3.90
2023-04-26T19:16:11.367Z,4.53
2023-04-26T19:18:40.821Z,5.25
2023-04-26T19:21:07.976Z,4.82
2023-04-26T19:23:34.653Z,4.35
2023-04-26T19:26:03.034Z,4.32
2023-04-26T19:28:29.637Z,5.20
2023-04-26T19:30:56.365Z,8.98
2023-04-26T19:33:22.969Z,22.90
2023-04-26T19:35:50.008Z,12.45
2023-04-26T19:38:16.948Z,8.27
2023-04-26T19:40:44.836Z,20.25
2023-04-26T19:43:11.762Z,23.10
2023-04-26T19:45:41.198Z,24.80
2023-04-26T19:48:14.261Z,21.02
2023-04-26T19:50:41.550Z,18.75
2023-04-26T19:53:09.782Z,26.42
2023-04-26T19:55:37.275Z,26.00
2023-04-26T19:58:04.541Z,39.67
2023-04-26T20:00:31.712Z,34.33
2023-04-26T20:02:59.205Z,29.27
2023-04-26T20:05:26.935Z,35.17
2023-04-26T20:07:54.112Z,34.50
2023-04-26T20:10:22.599Z,32.97
2023-04-26T20:12:49.533Z,31.88
2023-04-26T20:15:16.423Z,23.23
2023-04-26T20:17:43.454Z,23.92
2023-04-26T20:20:11.085Z,37.45
2023-04-26T20:22:38.072Z,41.30
2023-04-26T20:25:05.219Z,16.67
2023-04-26T20:27:31.869Z,78.20
2023-04-26T20:29:58.758Z,64.53
2023-04-26T20:32:25.681Z,48.38
2023-04-26T20:34:52.409Z,17.63
2023-04-26T20:37:19.116Z,10.00
2023-04-26T20:39:45.792Z,9.13
2023-04-26T20:42:12.756Z,10.05
2023-04-26T20:44:39.824Z,10.90
2023-04-26T20:47:06.855Z,12.70
2023-04-26T20:49:33.907Z,13.27
2023-04-26T20:52:01.512Z,12.02
2023-04-26T20:54:28.520Z,12.80
2023-04-26T20:56:56.070Z,15.45
2023-04-26T20:59:25.055Z,15.75
2023-04-26T21:01:53.095Z,14.65
2023-04-26T21:04:20.117Z,12.65
2023-04-26T21:06:47.707Z,13.25
2023-04-26T21:09:14.903Z,13.95
2023-04-26T21:11:43.008Z,12.45
2023-04-26T21:14:10.212Z,17.20
2023-04-26T21:16:37.262Z,15.57
2023-04-26T21:19:05.117Z,15.90
2023-04-26T21:21:33.050Z,15.48
2023-04-26T21:24:00.472Z,19.50
2023-04-26T21:26:27.534Z,17.73
2023-04-26T21:28:54.665Z,19.42
2023-04-26T21:31:21.729Z,18.25
2023-04-26T21:33:48.888Z,17.40
2023-04-26T21:36:16.859Z,16.38
2023-04-26T21:38:43.854Z,17.55
2023-04-26T21:41:11.127Z,16.50
2023-04-26T21:43:38.129Z,17.13
2023-04-26T21:46:05.315Z,18.33
2023-04-26T21:48:31.947Z,24.67
2023-04-26T21:50:59.143Z,20.00
2023-04-26T21:53:26.111Z,25.85
2023-04-26T21:55:53.895Z,17.80
2023-04-26T21:58:21.926Z,21.58
2023-04-26T22:00:49.624Z,22.33
2023-04-26T22:03:17.089Z,22.02
2023-04-26T22:05:44.753Z,19.95
2023-04-26T22:08:12.285Z,17.45
2023-04-26T22:10:39.542Z,17.83
2023-04-26T22:13:06.664Z,17.27
2023-04-26T22:15:33.660Z,15.75
2023-04-26T22:18:01.065Z,17.15
2023-04-26T22:20:30.372Z,20.88
2023-04-26T22:22:57.674Z,22.20
2023-04-26T22:25:25.704Z,20.17
2023-04-26T22:27:53.102Z,17.08
2023-04-26T22:30:24.800Z,16.58
2023-04-26T22:32:55.057Z,16.48
2023-04-26T22:35:22.657Z,13.35
2023-04-26T22:37:50.088Z,14.70
2023-04-26T22:40:17.559Z,12.60
2023-04-26T22:42:45.171Z,13.43
2023-04-26T22:45:12.968Z,11.50
2023-04-26T22:47:40.506Z,10.15
2023-04-26T22:50:08.201Z,9.75
2023-04-26T22:52:35.772Z,8.75
2023-04-26T22:55:03.434Z,10.20
2023-04-26T22:57:31.661Z,8.13
2023-04-26T22:59:58.815Z,8.40
2023-04-26T23:02:25.965Z,6.30
2023-04-26T23:04:53.204Z,7.32
2023-04-26T23:07:20.450Z,4.80
2023-04-26T23:09:48.086Z,6.18
2023-04-26T23:12:19.498Z,6.13
2023-04-26T23:14:48.278Z,5.55
2023-04-26T23:17:15.628Z,6.30
2023-04-26T23:19:43.132Z,6.43
2023-04-26T23:22:10.257Z,7.93
2023-04-26T23:24:37.283Z,5.30
2023-04-26T23:27:04.543Z,6.78
2023-04-26T23:29:31.699Z,6.07
2023-04-26T23:31:58.512Z,5.50
2023-04-26T23:34:25.618Z,5.97
2023-04-26T23:36:52.737Z,5.37
2023-04-26T23:39:19.867Z,5.25
2023-04-26T23:41:46.981Z,6.60
2023-04-26T23:44:14.054Z,5.97
2023-04-26T23:46:41.169Z,6.07
2023-04-26T23:49:08.259Z,5.47
2023-04-26T23:51:35.359Z,6.47
2023-04-26T23:54:02.396Z,5.45
2023-04-26T23:56:29.473Z,5.07
2023-04-26T23:58:56.662Z,6.47
